Time;durP1;ratioP1;P1;durP2;ratioP2;P2;SDS_P1;SDS_P2;PMS_P1;PMS_P2;Temp;Humidity;BMP_temperature;BMP_pressure;BME280_temperature;BME280_humidity;BME280_pressure;Samples;Min_cycle;Max_cycle;Signal;HPM_P1;HPM_P2
2023/07/13 00:01:17;;;;;;;0.47;0.47;;;17.40;99.90;;;;;;8239345;28;20015;-83
2023/07/13 00:05:17;;;;;;;0.10;0.10;;;17.50;99.90;;;;;;8238877;28;20031;-82
2023/07/13 00:09:19;;;;;;;0.10;0.10;;;17.30;99.90;;;;;;8221748;28;20575;-82
2023/07/13 00:13:19;;;;;;;0.10;0.10;;;17.30;99.90;;;;;;8238784;28;20476;-80
2023/07/13 00:17:20;;;;;;;0.10;0.10;;;17.30;99.90;;;;;;8237940;28;20123;-82
2023/07/13 00:21:21;;;;;;;0.10;0.10;;;17.40;99.90;;;;;;8237789;28;20094;-80
2023/07/13 00:25:24;;;;;;;0.10;0.10;;;17.60;99.90;;;;;;8220329;28;20033;-82
2023/07/13 00:29:26;;;;;;;0.10;0.10;;;17.40;99.90;;;;;;8236340;28;20019;-81
2023/07/13 00:33:29;;;;;;;0.00;0.00;;;17.50;99.90;;;;;;8219183;28;20516;-82
2023/07/13 00:37:30;;;;;;;0.10;0.10;;;17.50;99.90;;;;;;8219827;28;20026;-80
2023/07/13 00:41:32;;;;;;;0.10;0.10;;;17.30;99.90;;;;;;8220355;28;20150;-82
2023/07/13 00:45:41;;;;;;;0.10;0.10;;;17.30;99.90;;;;;;8218605;28;20023;-81
2023/07/13 00:49:42;;;;;;;0.20;0.20;;;17.40;99.90;;;;;;8218828;28;20053;-81
2023/07/13 00:53:42;;;;;;;0.10;0.10;;;17.30;99.90;;;;;;8245721;28;20019;-80
2023/07/13 00:57:44;;;;;;;0.10;0.10;;;17.20;99.90;;;;;;8229580;28;20023;-80
2023/07/13 01:01:45;;;;;;;0.10;0.10;;;17.20;99.90;;;;;;8236488;28;20531;-82
2023/07/13 01:05:48;;;;;;;0.10;0.10;;;17.40;99.90;;;;;;8234735;23;20170;-83
2023/07/13 01:09:49;;;;;;;0.10;0.10;;;17.60;99.90;;;;;;8276347;28;20065;-83
2023/07/13 01:13:49;;;;;;;0.10;0.10;;;17.60;99.90;;;;;;8280391;28;20025;-83
2023/07/13 01:17:50;;;;;;;0.10;0.10;;;17.60;99.90;;;;;;8276505;28;20019;-84
2023/07/13 01:21:52;;;;;;;0.17;0.17;;;17.60;99.90;;;;;;8253313;28;20022;-83
2023/07/13 01:25:53;;;;;;;0.10;0.10;;;17.50;99.90;;;;;;8274603;28;20033;-84
2023/07/13 01:30:01;;;;;;;0.10;0.10;;;17.40;99.90;;;;;;8259663;28;20617;-87
2023/07/13 01:34:02;;;;;;;0.10;0.10;;;17.30;99.90;;;;;;8266351;28;20023;-85
2023/07/13 01:38:03;;;;;;;0.10;0.10;;;17.20;99.90;;;;;;8256206;28;20018;-86
2023/07/13 01:42:04;;;;;;;0.10;0.10;;;17.00;99.90;;;;;;8253057;28;20015;-85
2023/07/13 01:46:04;;;;;;;0.98;0.85;;;16.80;99.90;;;;;;8257952;28;20088;-85
2023/07/13 01:50:05;;;;;;;0.10;0.10;;;16.80;99.90;;;;;;8267253;28;20029;-83
2023/07/13 01:54:06;;;;;;;0.10;0.10;;;16.80;99.90;;;;;;8242601;28;20025;-84
2023/07/13 01:58:06;;;;;;;0.00;0.00;;;17.10;99.90;;;;;;8250258;28;20502;-84
2023/07/13 02:02:07;;;;;;;0.10;0.10;;;16.90;99.90;;;;;;8252925;28;20034;-83
2023/07/13 02:06:07;;;;;;;0.10;0.10;;;16.80;99.90;;;;;;8259441;28;20419;-82
2023/07/13 02:10:09;;;;;;;0.30;0.30;;;16.90;99.90;;;;;;8251094;28;20026;-82
2023/07/13 02:14:10;;;;;;;0.10;0.10;;;16.70;99.90;;;;;;8258923;28;20026;-82
2023/07/13 02:18:10;;;;;;;0.10;0.10;;;17.10;99.90;;;;;;8257640;28;20458;-82
2023/07/13 02:22:11;;;;;;;0.10;0.10;;;17.00;99.90;;;;;;8262785;28;20392;-82
2023/07/13 02:26:11;;;;;;;0.10;0.10;;;16.50;99.90;;;;;;8280605;28;20030;-83
2023/07/13 02:30:15;;;;;;;0.10;0.10;;;16.20;99.90;;;;;;8265115;28;20045;-84
2023/07/13 02:34:15;;;;;;;0.10;0.10;;;15.90;99.90;;;;;;8262366;28;20104;-82
2023/07/13 02:38:16;;;;;;;0.10;0.10;;;15.70;99.90;;;;;;8257550;28;20069;-83
2023/07/13 02:42:16;;;;;;;0.10;0.10;;;15.60;99.90;;;;;;8273326;28;20026;-82
2023/07/13 02:46:19;;;;;;;0.20;0.20;;;15.50;99.90;;;;;;8263872;28;20053;-82
2023/07/13 02:50:19;;;;;;;0.10;0.10;;;15.40;99.90;;;;;;8255315;28;20015;-82
2023/07/13 02:54:20;;;;;;;0.10;0.10;;;15.30;99.90;;;;;;8249371;28;20023;-82
2023/07/13 02:58:21;;;;;;;0.10;0.10;;;15.30;99.90;;;;;;8279101;28;20696;-83
2023/07/13 03:02:21;;;;;;;0.10;0.10;;;15.20;99.90;;;;;;8270467;28;20515;-82
2023/07/13 03:06:22;;;;;;;0.03;0.03;;;15.30;99.90;;;;;;8242380;28;20030;-85
2023/07/13 03:10:23;;;;;;;0.10;0.10;;;15.30;99.90;;;;;;8256129;28;20551;-82
2023/07/13 03:14:23;;;;;;;0.10;0.10;;;15.20;99.90;;;;;;8262161;28;20081;-82
2023/07/13 03:18:27;;;;;;;0.10;0.10;;;15.20;99.90;;;;;;8255583;28;20027;-83
2023/07/13 03:22:27;;;;;;;0.10;0.10;;;15.30;99.90;;;;;;8270235;28;20019;-82
2023/07/13 03:26:28;;;;;;;0.08;0.08;;;15.40;99.90;;;;;;8262043;28;20023;-82
2023/07/13 03:30:28;;;;;;;0.10;0.10;;;15.60;99.90;;;;;;8261711;28;20026;-82
2023/07/13 03:34:29;;;;;;;0.10;0.10;;;15.80;99.90;;;;;;8275701;28;20403;-81
2023/07/13 03:38:29;;;;;;;0.10;0.10;;;16.20;99.90;;;;;;8261529;28;20077;-83
2023/07/13 03:42:30;;;;;;;0.10;0.10;;;16.00;99.90;;;;;;8276352;28;20543;-83
2023/07/13 03:46:31;;;;;;;0.00;0.00;;;15.80;99.90;;;;;;8264119;28;20041;-83
2023/07/13 03:50:32;;;;;;;0.10;0.10;;;15.70;99.90;;;;;;8241525;28;20716;-83
2023/07/13 03:54:32;;;;;;;0.10;0.10;;;15.70;99.90;;;;;;8268507;28;20035;-82
2023/07/13 03:58:36;;;;;;;0.10;0.10;;;15.80;99.90;;;;;;8270236;28;20026;-82
2023/07/13 04:02:37;;;;;;;0.10;0.10;;;15.80;99.90;;;;;;8269701;28;20106;-84
2023/07/13 04:06:37;;;;;;;0.10;0.10;;;15.80;99.90;;;;;;8261613;28;20022;-83
2023/07/13 04:10:38;;;;;;;0.10;0.10;;;15.90;99.90;;;;;;8268570;28;20023;-83
2023/07/13 04:14:39;;;;;;;0.10;0.10;;;15.90;99.90;;;;;;8256627;28;20046;-82
2023/07/13 04:18:39;;;;;;;0.10;0.10;;;15.90;99.90;;;;;;8225257;28;20508;-84
2023/07/13 04:22:40;;;;;;;0.15;0.15;;;16.00;99.90;;;;;;8229711;28;20030;-83
2023/07/13 04:26:40;;;;;;;0.10;0.10;;;16.20;99.90;;;;;;8249097;28;20023;-83
2023/07/13 04:30:41;;;;;;;0.10;0.10;;;16.20;99.90;;;;;;8255084;28;20027;-84
2023/07/13 04:34:41;;;;;;;0.10;0.10;;;16.70;99.90;;;;;;8255029;28;20630;-83
2023/07/13 04:38:42;;;;;;;0.10;0.10;;;16.70;99.90;;;;;;8231103;28;20051;-83
2023/07/13 04:42:44;;;;;;;0.10;0.10;;;16.60;99.90;;;;;;8234618;28;20026;-83
2023/07/13 04:46:45;;;;;;;0.10;0.10;;;16.60;99.90;;;;;;8261737;28;20493;-83
2023/07/13 04:50:46;;;;;;;0.10;0.10;;;16.70;99.90;;;;;;8237326;28;20026;-82
2023/07/13 04:54:47;;;;;;;0.10;0.10;;;16.60;99.90;;;;;;8254699;28;20027;-82
2023/07/13 04:58:47;;;;;;;0.10;0.10;;;16.60;99.90;;;;;;8239759;28;20516;-83
2023/07/13 05:02:48;;;;;;;0.10;0.10;;;16.70;99.90;;;;;;8244148;28;20030;-82
2023/07/13 05:06:48;;;;;;;0.10;0.10;;;16.60;99.90;;;;;;8244182;28;20668;-83
2023/07/13 05:10:50;;;;;;;3.83;1.85;;;16.60;99.90;;;;;;8241178;28;20027;-82
2023/07/13 05:14:50;;;;;;;0.10;0.10;;;16.60;99.90;;;;;;8230565;28;20182;-83
2023/07/13 05:18:51;;;;;;;0.10;0.10;;;16.80;99.90;;;;;;8253458;28;20391;-82
2023/07/13 05:22:51;;;;;;;0.20;0.20;;;16.80;99.90;;;;;;8243298;28;20054;-82
2023/07/13 05:26:53;;;;;;;0.10;0.10;;;16.90;99.90;;;;;;8230536;28;20026;-83
2023/07/13 05:30:54;;;;;;;0.10;0.10;;;17.10;99.90;;;;;;8246973;28;20134;-82
2023/07/13 05:34:54;;;;;;;0.10;0.10;;;17.30;99.90;;;;;;8241636;28;20023;-83
2023/07/13 05:38:55;;;;;;;0.13;0.13;;;17.30;99.90;;;;;;8227718;28;20061;-82
2023/07/13 05:42:55;;;;;;;0.20;0.20;;;17.30;99.90;;;;;;8251531;28;20031;-83
2023/07/13 05:46:56;;;;;;;0.10;0.10;;;17.40;99.90;;;;;;8251110;28;20460;-82
2023/07/13 05:50:57;;;;;;;0.10;0.10;;;17.60;99.90;;;;;;8226552;28;20027;-82
2023/07/13 05:54:57;;;;;;;0.10;0.10;;;17.70;99.90;;;;;;8253133;28;20019;-83
2023/07/13 05:58:58;;;;;;;0.10;0.10;;;17.80;99.90;;;;;;8259715;28;20101;-83
2023/07/13 06:02:58;;;;;;;0.10;0.10;;;18.20;99.90;;;;;;8239701;28;20034;-83
2023/07/13 06:07:00;;;;;;;0.15;0.15;;;18.80;99.90;;;;;;8234511;28;20031;-83
2023/07/13 06:11:12;;;;;;;0.10;0.10;;;18.80;99.90;;;;;;8246560;28;20030;-84
2023/07/13 06:15:13;;;;;;;0.10;0.10;;;18.80;99.90;;;;;;8231224;28;20023;-83
2023/07/13 06:19:14;;;;;;;0.10;0.10;;;19.10;99.90;;;;;;8232934;28;20023;-84
2023/07/13 06:23:14;;;;;;;0.10;0.10;;;19.60;99.90;;;;;;8249289;28;20519;-82
2023/07/13 06:27:15;;;;;;;0.10;0.10;;;20.10;99.90;;;;;;8229894;28;20065;-83
2023/07/13 06:31:16;;;;;;;0.20;0.20;;;20.50;99.90;;;;;;8221987;28;20488;-83
2023/07/13 06:35:16;;;;;;;0.10;0.10;;;20.50;99.90;;;;;;8245861;28;20037;-86
2023/07/13 06:39:17;;;;;;;0.10;0.10;;;20.40;99.90;;;;;;8270367;28;20822;-85
2023/07/13 06:43:19;;;;;;;0.10;0.10;;;20.40;99.90;;;;;;8271987;28;20038;-85
2023/07/13 06:47:19;;;;;;;0.20;0.20;;;20.50;99.90;;;;;;8255897;28;20019;-85
2023/07/13 06:51:20;;;;;;;0.20;0.20;;;20.70;99.90;;;;;;8227126;28;20074;-84
2023/07/13 06:55:20;;;;;;;0.10;0.10;;;21.10;99.90;;;;;;8260104;28;20025;-82
2023/07/13 06:59:21;;;;;;;0.17;0.17;;;21.00;99.90;;;;;;8269469;28;20626;-79
2023/07/13 07:03:21;;;;;;;0.10;0.10;;;21.20;99.90;;;;;;8238102;28;20049;-80
2023/07/13 07:07:24;;;;;;;0.10;0.10;;;21.00;99.90;;;;;;8241392;28;20037;-80
2023/07/13 07:11:26;;;;;;;0.10;0.10;;;20.80;99.90;;;;;;8258814;28;20065;-80
2023/07/13 07:15:27;;;;;;;0.10;0.10;;;20.60;99.90;;;;;;8246016;28;20030;-81
2023/07/13 07:19:29;;;;;;;0.20;0.20;;;20.40;99.90;;;;;;8260024;28;20022;-80
2023/07/13 07:23:30;;;;;;;0.10;0.10;;;20.30;99.90;;;;;;8254652;28;20030;-80
2023/07/13 07:27:32;;;;;;;0.10;0.10;;;20.70;99.90;;;;;;8239937;28;20037;-81
2023/07/13 07:31:33;;;;;;;0.10;0.10;;;20.80;99.90;;;;;;8255918;28;20034;-81
2023/07/13 07:35:33;;;;;;;0.10;0.10;;;20.60;99.90;;;;;;8259858;28;20038;-81
2023/07/13 07:39:34;;;;;;;0.20;0.20;;;20.90;99.90;;;;;;8256308;28;20027;-81
2023/07/13 07:43:34;;;;;;;0.32;0.32;;;21.30;99.90;;;;;;8233425;28;20118;-82
2023/07/13 07:47:35;;;;;;;0.10;0.10;;;21.60;99.90;;;;;;8257887;28;20045;-82
2023/07/13 07:51:36;;;;;;;0.10;0.10;;;21.50;99.90;;;;;;8242834;28;20128;-83
2023/07/13 07:55:36;;;;;;;0.10;0.10;;;21.30;99.90;;;;;;8248723;28;20031;-82
2023/07/13 07:59:38;;;;;;;0.13;0.13;;;21.40;99.90;;;;;;8227191;28;20019;-82
2023/07/13 08:03:39;;;;;;;0.10;0.10;;;21.30;99.90;;;;;;8238174;28;20114;-83
2023/07/13 08:07:39;;;;;;;0.10;0.10;;;21.50;99.90;;;;;;8236337;28;20496;-83
2023/07/13 08:11:40;;;;;;;0.10;0.10;;;22.10;99.90;;;;;;8243722;28;20027;-82
2023/07/13 08:15:40;;;;;;;0.10;0.10;;;22.70;99.90;;;;;;8234637;28;20045;-82
2023/07/13 08:19:41;;;;;;;0.10;0.10;;;22.90;99.90;;;;;;8244740;28;20433;-81
2023/07/13 08:23:41;;;;;;;0.10;0.10;;;23.10;99.90;;;;;;8250253;28;20397;-81
2023/07/13 08:27:42;;;;;;;0.40;0.40;;;23.50;99.90;;;;;;8236624;28;20026;-81
2023/07/13 08:31:42;;;;;;;0.10;0.10;;;23.60;99.90;;;;;;8244990;28;20622;-81
2023/07/13 08:35:46;;;;;;;0.10;0.10;;;23.10;99.90;;;;;;8227758;28;20118;-81
2023/07/13 08:39:47;;;;;;;0.10;0.10;;;23.00;99.90;;;;;;8242228;28;20029;-82
2023/07/13 08:43:55;;;;;;;0.10;0.10;;;22.40;99.90;;;;;;8240088;28;20054;-81
2023/07/13 08:48:11;;;;;;;1.00;1.00;;;21.90;99.90;;;;;;8254475;28;20447;-80
2023/07/13 08:52:34;;;;;;;0.17;0.17;;;21.40;99.90;;;;;;8251560;28;20022;-81
2023/07/13 08:56:35;;;;;;;0.10;0.10;;;21.30;99.90;;;;;;8226592;28;20038;-82
2023/07/13 09:00:55;;;;;;;0.10;0.10;;;21.50;99.90;;;;;;8227195;28;20412;-81
2023/07/13 09:05:10;;;;;;;0.30;0.30;;;22.60;99.90;;;;;;8243408;28;20475;-80
2023/07/13 09:09:41;;;;;;;0.25;0.25;;;23.30;99.90;;;;;;8234451;28;20029;-81
2023/07/13 09:13:54;;;;;;;0.10;0.10;;;23.40;99.90;;;;;;8239255;28;20034;-81
2023/07/13 09:18:01;;;;;;;0.30;0.30;;;23.40;99.90;;;;;;8250028;28;20624;-80
2023/07/13 09:22:08;;;;;;;0.10;0.10;;;23.60;99.90;;;;;;8236525;28;20507;-80
2023/07/13 09:26:20;;;;;;;0.10;0.10;;;23.60;99.90;;;;;;8241957;28;20023;-80
2023/07/13 09:30:25;;;;;;;0.15;0.15;;;23.80;99.90;;;;;;8226851;28;20023;-82
2023/07/13 09:34:26;;;;;;;0.10;0.10;;;24.40;99.90;;;;;;8248660;28;20037;-81
2023/07/13 09:38:29;;;;;;;6.80;2.28;;;25.60;99.90;;;;;;8227088;28;20031;-80
2023/07/13 09:42:31;;;;;;;3.80;1.60;;;27.00;99.90;;;;;;8202372;28;20325;-83
2023/07/13 09:46:32;;;;;;;6.40;1.42;;;27.20;99.90;;;;;;8239645;28;20034;-82
2023/07/13 09:50:32;;;;;;;5.82;1.60;;;26.70;99.90;;;;;;8239444;28;20116;-81
2023/07/13 09:54:35;;;;;;;5.50;1.67;;;26.60;99.90;;;;;;8229070;28;20038;-81
2023/07/13 09:58:35;;;;;;;2.55;1.30;;;27.00;99.90;;;;;;8230722;28;20026;-81
2023/07/13 10:02:36;;;;;;;3.35;1.90;;;26.70;99.90;;;;;;8241000;28;20427;-81
2023/07/13 10:06:39;;;;;;;3.58;1.67;;;26.60;99.90;;;;;;8250893;28;20177;-82
2023/07/13 10:10:39;;;;;;;4.30;1.70;;;26.40;99.90;;;;;;8254902;28;20400;-82
2023/07/13 10:14:41;;;;;;;3.60;1.75;;;26.60;99.90;;;;;;8253234;28;20023;-82
2023/07/13 10:18:49;;;;;;;4.72;1.52;;;26.40;99.90;;;;;;8247771;28;20030;-84
2023/07/13 10:23:04;;;;;;;3.17;1.73;;;26.60;99.90;;;;;;8246120;28;20077;-82
2023/07/13 10:27:25;;;;;;;5.85;1.98;;;26.80;99.90;;;;;;8198618;28;20023;-81
2023/07/13 10:31:25;;;;;;;4.28;1.63;;;26.70;99.90;;;;;;8231250;28;20023;-81
2023/07/13 10:35:30;;;;;;;9.73;1.67;;;26.40;99.90;;;;;;8234185;28;20031;-81
2023/07/13 10:39:33;;;;;;;4.65;1.90;;;25.80;99.90;;;;;;8222891;28;20034;-80
2023/07/13 10:43:39;;;;;;;2.40;1.70;;;25.30;99.90;;;;;;8223563;28;20496;-81
2023/07/13 10:47:40;;;;;;;2.85;1.90;;;26.10;99.90;;;;;;8231465;28;20440;-81
2023/07/13 10:51:41;;;;;;;5.07;1.90;;;26.60;99.90;;;;;;8239740;28;20400;-81
2023/07/13 10:56:11;;;;;;;5.25;2.20;;;26.20;99.90;;;;;;8221040;28;20019;-82
2023/07/13 11:00:17;;;;;;;4.57;1.48;;;26.20;99.90;;;;;;8243923;28;20088;-83
2023/07/13 11:04:20;;;;;;;7.72;2.20;;;25.30;99.90;;;;;;8235191;28;20031;-81
2023/07/13 11:08:46;;;;;;;6.40;2.00;;;24.50;99.90;;;;;;8252445;28;20026;-80
2023/07/13 11:12:47;;;;;;;4.72;2.05;;;24.60;99.90;;;;;;8237178;28;20508;-83
2023/07/13 11:16:47;;;;;;;6.05;1.92;;;25.00;99.90;;;;;;8228906;28;20421;-82
2023/07/13 11:20:49;;;;;;;4.20;1.92;;;25.70;99.90;;;;;;8232728;28;20080;-83
2023/07/13 11:25:00;;;;;;;4.05;1.80;;;26.70;99.90;;;;;;8233018;28;20437;-83
2023/07/13 11:29:07;;;;;;;;;;;26.70;99.90;;;;;;8232029;28;20485;-83
2023/07/13 11:33:21;;;;;;;3.38;1.88;;;27.40;98.90;;;;;;8232358;28;19969;-82
2023/07/13 11:37:23;;;;;;;5.38;1.88;;;27.30;99.90;;;;;;8221603;28;20019;-83
2023/07/13 11:41:28;;;;;;;3.38;1.80;;;28.20;98.30;;;;;;8264473;28;20041;-82
2023/07/13 11:45:30;;;;;;;5.43;1.92;;;28.20;98.20;;;;;;8238175;28;20031;-82
2023/07/13 11:49:31;;;;;;;5.00;2.22;;;27.50;96.90;;;;;;8242978;28;20041;-82
2023/07/13 11:53:41;;;;;;;2.63;1.80;;;28.30;97.50;;;;;;8239708;28;20676;-83
2023/07/13 11:57:59;;;;;;;3.50;2.42;;;28.60;95.70;;;;;;8226961;28;20042;-82
2023/07/13 12:02:00;;;;;;;4.40;2.10;;;28.50;97.00;;;;;;8247387;28;20022;-82
2023/07/13 12:06:02;;;;;;;2.90;1.80;;;29.40;92.40;;;;;;8256326;28;20022;-83
2023/07/13 12:10:23;;;;;;;4.20;2.10;;;29.80;93.20;;;;;;8248500;28;20050;-82
2023/07/13 12:14:26;;;;;;;4.65;1.95;;;30.20;90.10;;;;;;8242268;28;20023;-82
2023/07/13 12:18:31;;;;;;;3.35;2.00;;;29.30;92.90;;;;;;8245845;28;20577;-83
2023/07/13 12:22:33;;;;;;;4.85;2.35;;;28.50;93.40;;;;;;8255412;28;20026;-83
2023/07/13 12:26:34;;;;;;;6.07;2.17;;;28.60;93.10;;;;;;8236019;28;20023;-84
2023/07/13 12:30:35;;;;;;;3.92;2.00;;;30.00;92.90;;;;;;8256298;28;20646;-84
2023/07/13 12:34:54;;;;;;;3.75;2.08;;;32.30;91.10;;;;;;8240625;28;20039;-82
2023/07/13 12:38:54;;;;;;;4.10;2.10;;;31.30;80.80;;;;;;8235586;28;20019;-82
2023/07/13 12:42:55;;;;;;;8.13;2.10;;;30.10;82.60;;;;;;8234712;28;20408;-83
2023/07/13 12:47:05;;;;;;;3.58;1.65;;;29.50;91.20;;;;;;8229643;28;20512;-82
2023/07/13 12:51:11;;;;;;;2.83;1.88;;;29.30;90.00;;;;;;8243256;28;20249;-82
2023/07/13 12:55:16;;;;;;;3.17;1.70;;;30.10;91.30;;;;;;8248505;28;20030;-83
2023/07/13 12:59:20;;;;;;;3.05;1.77;;;32.20;90.20;;;;;;8248006;28;20104;-83
2023/07/13 13:03:41;;;;;;;4.78;2.00;;;32.70;78.40;;;;;;8226423;28;20026;-80
2023/07/13 13:07:42;;;;;;;;;;;32.70;75.40;;;;;;8248380;28;20495;-82
2023/07/13 13:11:42;;;;;;;4.47;1.65;;;33.40;73.70;;;;;;8234945;28;20368;-81
2023/07/13 13:15:43;;;;;;;3.97;1.45;;;33.90;80.70;;;;;;8233709;28;20036;-82
2023/07/13 13:19:44;;;;;;;3.63;1.80;;;32.50;69.90;;;;;;8225936;28;20979;-81
2023/07/13 13:23:45;;;;;;;4.03;1.95;;;32.90;73.70;;;;;;8243651;28;20018;-80
2023/07/13 13:27:46;;;;;;;3.75;1.75;;;34.80;68.60;;;;;;8252222;28;20042;-81
2023/07/13 13:31:47;;;;;;;4.78;1.50;;;34.70;66.60;;;;;;8248455;28;20027;-81
2023/07/13 13:35:48;;;;;;;4.82;1.67;;;34.40;66.30;;;;;;8247104;28;20039;-80
2023/07/13 13:39:49;;;;;;;7.43;2.10;;;34.50;68.50;;;;;;8247099;28;20054;-81
2023/07/13 13:43:50;;;;;;;4.75;1.60;;;34.90;68.60;;;;;;8241632;28;20022;-81
2023/07/13 13:47:50;;;;;;;6.57;1.80;;;35.20;60.30;;;;;;8231550;28;20023;-81
2023/07/13 13:51:52;;;;;;;2.47;1.63;;;33.90;64.40;;;;;;8245017;28;20106;-81
2023/07/13 13:55:52;;;;;;;4.25;1.80;;;34.20;68.00;;;;;;8254632;28;20080;-81
2023/07/13 13:59:53;;;;;;;6.50;1.77;;;35.60;61.90;;;;;;8251189;28;20501;-82
2023/07/13 14:03:53;;;;;;;6.30;1.65;;;36.40;57.70;;;;;;8245610;28;20058;-82
2023/07/13 14:07:54;;;;;;;3.83;1.55;;;35.10;65.20;;;;;;8232366;28;21897;-83
2023/07/13 14:11:57;;;;;;;3.38;1.90;;;36.10;60.20;;;;;;8229782;28;20038;-83
2023/07/13 14:15:59;;;;;;;2.63;1.55;;;34.00;63.40;;;;;;8225916;28;20034;-83
2023/07/13 14:19:59;;;;;;;5.60;1.80;;;32.60;70.00;;;;;;8242703;28;20425;-83
2023/07/13 14:24:00;;;;;;;6.22;1.98;;;30.30;74.60;;;;;;8239543;28;20019;-82
2023/07/13 14:28:26;;;;;;;5.53;1.80;;;28.80;79.40;;;;;;8259441;28;20026;-82
2023/07/13 14:32:26;;;;;;;3.88;1.60;;;27.70;80.00;;;;;;8255366;28;20125;-82
2023/07/13 14:36:37;;;;;;;4.97;2.50;;;27.80;77.40;;;;;;8257275;28;20135;-82
2023/07/13 14:40:38;;;;;;;4.13;1.77;;;27.00;78.30;;;;;;8231914;28;20046;-82
2023/07/13 14:44:40;;;;;;;4.80;1.85;;;26.50;84.70;;;;;;8238084;28;20026;-83
2023/07/13 14:48:42;;;;;;;6.93;1.90;;;26.60;83.00;;;;;;8226621;28;20035;-83
2023/07/13 14:52:43;;;;;;;7.55;1.77;;;26.20;84.10;;;;;;8240942;28;20118;-83
2023/07/13 14:56:44;;;;;;;5.30;2.08;;;25.60;91.50;;;;;;8252564;28;20060;-84
2023/07/13 15:00:46;;;;;;;3.33;2.03;;;25.10;94.20;;;;;;8236267;28;20037;-82
2023/07/13 15:04:47;;;;;;;8.80;2.13;;;24.90;94.40;;;;;;8240382;28;20038;-82
2023/07/13 15:08:48;;;;;;;6.78;2.00;;;25.20;96.40;;;;;;8225585;28;20030;-84
2023/07/13 15:12:58;;;;;;;7.70;1.90;;;27.20;90.10;;;;;;8238915;28;20030;-83
2023/07/13 15:16:59;;;;;;;4.47;1.70;;;30.40;81.20;;;;;;8255975;28;20018;-84
2023/07/13 15:21:02;;;;;;;5.45;1.88;;;33.50;72.90;;;;;;8256079;28;20053;-84
2023/07/13 15:25:03;;;;;;;3.67;1.60;;;32.90;73.10;;;;;;8262522;28;20105;-84
2023/07/13 15:29:04;;;;;;;3.60;1.70;;;31.10;74.50;;;;;;8238766;28;20101;-83
2023/07/13 15:33:30;;;;;;;4.68;2.10;;;28.90;76.30;;;;;;8236698;28;20037;-83
2023/07/13 15:37:30;;;;;;;7.32;1.83;;;27.10;86.50;;;;;;8242561;28;20085;-83
2023/07/13 15:41:32;;;;;;;4.60;1.90;;;26.70;92.30;;;;;;8238805;28;20072;-83
2023/07/13 15:45:33;;;;;;;2.50;1.50;;;28.50;85.90;;;;;;8232122;28;20035;-84
2023/07/13 15:49:33;;;;;;;3.85;1.73;;;30.10;79.40;;;;;;8235877;28;20460;-84
2023/07/13 15:53:35;;;;;;;4.28;1.88;;;29.10;80.20;;;;;;8219299;28;20038;-82
2023/07/13 15:57:36;;;;;;;3.78;1.58;;;27.90;81.50;;;;;;8243831;28;20113;-84
2023/07/13 16:01:36;;;;;;;3.75;1.77;;;27.20;83.10;;;;;;8233802;28;20027;-83
2023/07/13 16:05:38;;;;;;;4.78;1.90;;;26.10;86.30;;;;;;8243993;28;20047;-84
2023/07/13 16:09:40;;;;;;;4.00;1.50;;;25.50;90.40;;;;;;8252657;28;20031;-84
2023/07/13 16:13:40;;;;;;;2.78;1.52;;;25.00;91.40;;;;;;8222312;28;20081;-82
2023/07/13 16:17:42;;;;;;;6.53;1.70;;;25.10;92.10;;;;;;8235312;28;20535;-84
2023/07/13 16:21:51;;;;;;;4.53;2.05;;;25.20;92.20;;;;;;8240748;28;20018;-83
2023/07/13 16:25:52;;;;;;;6.10;2.17;;;25.40;92.30;;;;;;8233802;28;20457;-83
2023/07/13 16:29:53;;;;;;;4.05;1.70;;;25.20;93.80;;;;;;8234170;28;20073;-82
2023/07/13 16:33:53;;;;;;;3.58;1.83;;;24.80;93.80;;;;;;8237596;28;20481;-83
2023/07/13 16:37:55;;;;;;;3.67;2.08;;;24.70;93.90;;;;;;8253460;28;20015;-83
2023/07/13 16:41:57;;;;;;;4.00;2.17;;;24.50;95.80;;;;;;8245804;28;20516;-83
2023/07/13 16:46:03;;;;;;;6.53;1.80;;;24.30;95.90;;;;;;8249857;28;20041;-83
2023/07/13 16:50:16;;;;;;;3.58;2.08;;;24.20;96.00;;;;;;8250790;28;20026;-83
2023/07/13 16:54:18;;;;;;;4.13;1.85;;;24.20;97.70;;;;;;8225235;28;20022;-83
2023/07/13 16:58:20;;;;;;;6.93;1.95;;;24.10;98.00;;;;;;8231020;28;20010;-83
2023/07/13 17:02:27;;;;;;;3.50;2.08;;;24.10;98.00;;;;;;8238242;28;20019;-82
2023/07/13 17:06:29;;;;;;;3.90;2.05;;;23.90;98.60;;;;;;8237235;28;20121;-83
2023/07/13 17:10:30;;;;;;;3.60;2.10;;;23.70;99.80;;;;;;8229386;28;20035;-83
2023/07/13 17:14:34;;;;;;;5.07;2.50;;;23.50;99.90;;;;;;8242674;28;20030;-84
2023/07/13 17:18:37;;;;;;;4.93;2.00;;;23.50;99.90;;;;;;8246710;28;20030;-83
2023/07/13 17:22:38;;;;;;;7.50;2.10;;;23.50;99.90;;;;;;8252989;28;20081;-83
2023/07/13 17:26:40;;;;;;;4.25;2.13;;;23.40;99.90;;;;;;8255129;28;20071;-84
2023/07/13 17:30:43;;;;;;;4.22;2.00;;;23.30;99.90;;;;;;8241139;28;20077;-83
2023/07/13 17:34:47;;;;;;;3.70;2.20;;;23.60;99.90;;;;;;8233706;28;20085;-84
2023/07/13 17:38:56;;;;;;;5.13;1.98;;;23.60;99.90;;;;;;8247685;28;20033;-84
2023/07/13 17:42:56;;;;;;;4.93;1.98;;;23.70;99.90;;;;;;8234007;28;20034;-83
2023/07/13 17:46:57;;;;;;;2.67;1.80;;;23.50;99.90;;;;;;8238857;28;20026;-84
2023/07/13 17:50:59;;;;;;;3.42;2.13;;;23.40;99.90;;;;;;8221699;28;20436;-84
2023/07/13 17:55:02;;;;;;;4.72;1.90;;;23.20;99.90;;;;;;8240432;28;20082;-83
2023/07/13 17:59:04;;;;;;;6.68;2.08;;;22.90;99.90;;;;;;8233291;28;20018;-85
2023/07/13 18:03:18;;;;;;;6.30;1.70;;;22.70;99.90;;;;;;8241455;28;20030;-84
2023/07/13 18:07:21;;;;;;;3.08;1.75;;;22.50;99.90;;;;;;8254967;28;20027;-84
2023/07/13 18:11:23;;;;;;;2.60;1.92;;;22.10;99.90;;;;;;8234905;28;20027;-84
2023/07/13 18:15:29;;;;;;;4.35;2.05;;;21.80;99.90;;;;;;8256690;28;20476;-83
2023/07/13 18:19:37;;;;;;;4.22;2.13;;;21.50;99.90;;;;;;8260524;28;20463;-85
2023/07/13 18:23:38;;;;;;;6.35;2.00;;;21.20;99.90;;;;;;8253160;28;20058;-85
2023/07/13 18:27:38;;;;;;;3.72;2.30;;;20.80;99.90;;;;;;8251033;28;20488;-85
2023/07/13 18:31:39;;;;;;;4.05;2.75;;;20.60;99.90;;;;;;8247780;28;20391;-85
2023/07/13 18:35:40;;;;;;;4.47;2.42;;;20.40;99.90;;;;;;8248341;28;20441;-84
2023/07/13 18:39:40;;;;;;;6.55;2.47;;;20.10;99.90;;;;;;8242972;28;20022;-81
2023/07/13 18:43:42;;;;;;;4.90;2.25;;;19.80;99.90;;;;;;8245764;28;20035;-81
2023/07/13 18:47:45;;;;;;;5.82;3.03;;;19.80;99.90;;;;;;8251619;28;20681;-81
2023/07/13 18:51:48;;;;;;;3.80;2.28;;;19.60;99.90;;;;;;8244873;28;20054;-81
2023/07/13 18:55:48;;;;;;;5.32;2.15;;;19.90;99.90;;;;;;8244913;28;20098;-81
2023/07/13 18:59:49;;;;;;;3.70;2.17;;;20.10;99.90;;;;;;8243350;28;20026;-81
2023/07/13 19:03:51;;;;;;;3.45;2.20;;;19.60;99.90;;;;;;8252247;28;20034;-81
2023/07/13 19:07:52;;;;;;;4.03;2.50;;;19.40;99.90;;;;;;8248022;28;20412;-82
2023/07/13 19:11:53;;;;;;;5.65;2.60;;;19.50;99.90;;;;;;8384197;23;20427;-83
2023/07/13 19:15:55;;;;;;;3.90;2.97;;;19.30;99.90;;;;;;8282634;28;20033;-85
2023/07/13 19:19:56;;;;;;;7.38;3.10;;;19.20;99.90;;;;;;8295683;28;20026;-88
2023/07/13 19:23:57;;;;;;;5.15;2.65;;;19.30;99.90;;;;;;8274170;28;20130;-88
2023/07/13 19:28:15;;;;;;;3.17;2.50;;;18.80;99.90;;;;;;8253571;28;20048;-88
2023/07/13 19:32:28;;;;;;;3.30;2.65;;;18.70;99.90;;;;;;8249851;28;20492;-85
2023/07/13 19:36:29;;;;;;;7.43;3.47;;;19.00;99.90;;;;;;8263526;28;20032;-87
2023/07/13 19:40:29;;;;;;;4.40;2.83;;;19.30;99.90;;;;;;8247010;28;20027;-86
2023/07/13 19:44:30;;;;;;;4.15;3.03;;;18.90;99.90;;;;;;8247258;28;20033;-86
2023/07/13 19:48:32;;;;;;;7.57;3.95;;;19.10;99.90;;;;;;8254571;28;20058;-85
2023/07/13 19:52:32;;;;;;;8.20;3.35;;;19.20;99.90;;;;;;8268267;28;20056;-86
2023/07/13 19:56:33;;;;;;;5.75;3.20;;;19.30;99.90;;;;;;8250225;28;20033;-86
2023/07/13 20:00:34;;;;;;;3.95;2.85;;;19.10;99.90;;;;;;8247687;28;20082;-85
2023/07/13 20:04:37;;;;;;;5.07;2.67;;;18.90;99.90;;;;;;8261363;28;20030;-87
2023/07/13 20:08:38;;;;;;;3.53;2.80;;;18.70;99.90;;;;;;8267535;28;20030;-87
2023/07/13 20:12:39;;;;;;;4.70;2.67;;;18.80;99.90;;;;;;8251169;28;20077;-87
2023/07/13 20:16:40;;;;;;;6.95;3.05;;;18.50;99.90;;;;;;8248997;28;20038;-86
2023/07/13 20:20:45;;;;;;;6.70;3.33;;;18.40;99.90;;;;;;8271278;28;20026;-86
2023/07/13 20:24:46;;;;;;;4.50;3.78;;;18.40;99.90;;;;;;8260500;28;20022;-85
2023/07/13 20:28:46;;;;;;;5.15;3.47;;;18.40;99.90;;;;;;8263863;28;20106;-86
2023/07/13 20:32:47;;;;;;;34.80;9.13;;;18.60;99.90;;;;;;8243396;28;20062;-83
2023/07/13 20:36:48;;;;;;;15.07;4.95;;;18.40;99.90;;;;;;8249030;28;20034;-82
2023/07/13 20:40:51;;;;;;;9.15;4.65;;;18.50;99.90;;;;;;8259575;28;20101;-83
2023/07/13 20:44:52;;;;;;;13.30;4.72;;;18.10;99.90;;;;;;8244767;28;20411;-82
2023/07/13 20:48:53;;;;;;;5.60;3.38;;;17.90;99.90;;;;;;8241289;28;20026;-82
2023/07/13 20:52:57;;;;;;;10.55;4.68;;;17.50;99.90;;;;;;8256445;28;20117;-82
2023/07/13 20:56:57;;;;;;;8.95;4.78;;;17.20;99.90;;;;;;8258439;28;20101;-82
2023/07/13 21:00:58;;;;;;;9.27;5.05;;;17.10;99.90;;;;;;8261012;28;20077;-82
2023/07/13 21:05:17;;;;;;;7.90;5.03;;;17.40;99.90;;;;;;8264391;28;20026;-82